Time,TemperatureF,DewpointF,PressureIn,WindDirection,WindDirectionDegrees,WindSpeedMPH,WindSpeedGustMPH,Humidity,HourlyPrecipIn,Conditions,Clouds,dailyrainin,SoftwareType,DateUTC
2013-03-22 08:30:00,36.1,35.6,0.00,SSW,202,1.6,2.5,98,0.00,,OVC,0.00,VWS V14.01,2013-03-22 15:30:00,
2013-03-22 08:35:00,36.5,36.0,30.39,South,180,3.8,3.8,98,0.00,,OVC,0.00,VWS V14.01,2013-03-22 15:35:00,
2013-03-22 08:40:00,36.1,35.6,30.39,SSW,202,2.7,3.8,98,0.00,,OVC,0.00,VWS V14.01,2013-03-22 15:40:00,
2013-03-22 08:45:00,37.0,36.5,30.39,South,180,2.5,3.8,98,0.00,,OVC,0.00,VWS V14.01,2013-03-22 15:45:00,
2013-03-22 08:50:00,38.7,37.6,30.39,SSW,202,2.5,3.8,96,0.00,,OVC,0.00,VWS V14.01,2013-03-22 15:50:00,
2013-03-22 08:55:00,39.2,37.9,30.39,SSW,202,1.3,3.8,95,0.00,,OVC,0.00,VWS V14.01,2013-03-22 15:55:00,
2013-03-22 09:00:00,38.7,36.8,30.39,WSW,248,2.0,2.2,93,0.00,,OVC,0.00,VWS V14.01,2013-03-22 16:00:00,
2013-03-22 09:05:00,38.7,36.3,30.39,WSW,248,2.5,2.5,91,0.00,,OVC,0.00,VWS V14.01,2013-03-22 16:05:00,
2013-03-22 09:10:00,37.6,32.6,30.39,South,180,4.0,4.0,82,0.00,,OVC,0.00,VWS V14.01,2013-03-22 16:10:00,
2013-03-22 09:15:00,37.0,31.8,30.39,SSW,202,1.6,4.0,81,0.00,,OVC,0.00,VWS V14.01,2013-03-22 16:15:00,
2013-03-22 09:20:00,37.4,32.4,30.41,South,180,1.6,4.0,82,0.00,,OVC,0.00,VWS V14.01,2013-03-22 16:20:00,
2013-03-22 09:25:00,38.7,34.5,30.41,South,180,1.1,4.0,85,0.00,,OVC,0.00,VWS V14.01,2013-03-22 16:25:00,
2013-03-22 09:30:00,40.8,37.5,30.41,SE,135,0.0,4.0,88,0.00,,OVC,0.00,VWS V14.01,2013-03-22 16:30:00,
2013-03-22 09:35:00,42.8,39.8,30.41,SE,135,0.0,4.0,89,0.04,,OVC,0.04,VWS V14.01,2013-03-22 16:35:00,
2013-03-22 09:40:00,44.2,40.6,30.41,South,180,1.3,4.0,87,0.04,,OVC,0.04,VWS V14.01,2013-03-22 16:40:00,
2013-03-22 09:45:00,44.8,36.7,30.41,SSE,158,2.2,4.0,73,0.04,,OVC,0.04,VWS V14.01,2013-03-22 16:45:00,
2013-03-22 09:50:00,44.2,34.0,30.41,SSE,158,2.9,5.4,67,0.04,,OVC,0.04,VWS V14.01,2013-03-22 16:50:00,
2013-03-22 09:55:00,44.4,33.0,30.41,WSW,248,4.0,5.6,64,0.04,,OVC,0.04,VWS V14.01,2013-03-22 16:55:00,
2013-03-22 10:00:00,43.9,32.1,30.41,SSW,202,3.8,4.3,63,0.04,,OVC,0.04,VWS V14.01,2013-03-22 17:00:00,
2013-03-22 10:05:00,45.3,34.6,30.41,WNW,292,1.1,4.3,66,0.04,,OVC,0.04,VWS V14.01,2013-03-22 17:05:00,
2013-03-22 10:10:00,45.9,32.8,30.41,NNW,338,1.3,4.3,60,0.04,,OVC,0.04,VWS V14.01,2013-03-22 17:10:00,
2013-03-22 10:15:00,46.2,31.4,30.41,NNW,338,2.0,4.9,56,0.04,,OVC,0.04,VWS V14.01,2013-03-22 17:15:00,
2013-03-22 10:20:00,46.6,28.5,30.41,SW,225,6.3,8.1,49,0.04,,OVC,0.04,VWS V14.01,2013-03-22 17:20:00,
2013-03-22 10:26:00,46.4,30.2,30.41,SW,225,5.6,8.1,53,0.04,,OVC,0.04,VWS V14.01,2013-03-22 17:26:00,
2013-03-22 10:31:00,46.8,30.5,30.41,SE,135,3.4,8.1,53,0.04,,OVC,0.04,VWS V14.01,2013-03-22 17:31:00,
2013-03-22 10:36:00,46.9,29.8,30.41,NE,45,1.1,8.1,51,0.04,,OVC,0.04,VWS V14.01,2013-03-22 17:36:00,
2013-03-22 10:41:00,46.2,30.5,30.41,NNW,338,4.0,8.1,54,0.04,,OVC,0.04,VWS V14.01,2013-03-22 17:41:00,
2013-03-22 10:46:00,46.0,29.9,30.41,WNW,292,4.0,8.1,53,0.04,,OVC,0.04,VWS V14.01,2013-03-22 17:46:00,
2013-03-22 10:51:00,45.7,28.1,30.41,NNW,338,1.1,8.1,50,0.04,,OVC,0.04,VWS V14.01,2013-03-22 17:51:00,
2013-03-22 10:56:00,46.6,29.9,30.41,SSE,158,0.9,8.1,52,0.04,,OVC,0.04,VWS V14.01,2013-03-22 17:56:00,
2013-03-22 11:01:00,45.9,28.8,30.41,South,180,0.9,2.7,51,0.00,,OVC,0.04,VWS V14.01,2013-03-22 18:01:00,
2013-03-22 11:06:00,43.9,27.4,30.41,NNW,338,2.0,5.8,52,0.00,,OVC,0.04,VWS V14.01,2013-03-22 18:06:00,
2013-03-22 11:11:00,43.3,27.8,30.41,NE,45,0.0,5.8,54,0.00,,OVC,0.04,VWS V14.01,2013-03-22 18:11:00,
2013-03-22 11:16:00,44.1,28.9,30.41,SSE,158,1.1,5.8,55,0.00,,OVC,0.04,VWS V14.01,2013-03-22 18:16:00,
2013-03-22 11:21:00,46.0,31.2,30.41,SW,225,1.1,5.8,56,0.00,,OVC,0.04,VWS V14.01,2013-03-22 18:21:00,
2013-03-22 11:26:00,46.0,28.9,30.41,South,180,3.8,5.8,51,0.00,,OVC,0.04,VWS V14.01,2013-03-22 18:26:00,
2013-03-22 11:32:00,44.4,27.4,30.41,SW,225,2.5,5.8,51,0.00,,OVC,0.04,VWS V14.01,2013-03-22 18:32:00,
2013-03-22 11:37:00,43.3,27.8,30.41,South,180,2.7,6.5,54,0.00,,OVC,0.04,VWS V14.01,2013-03-22 18:37:00,
2013-03-22 11:42:00,43.2,28.1,30.41,North,0,2.9,6.5,55,0.00,,OVC,0.04,VWS V14.01,2013-03-22 18:42:00,
2013-03-22 11:47:00,46.6,31.3,30.41,SE,135,1.1,6.5,55,0.00,,OVC,0.04,VWS V14.01,2013-03-22 18:47:00,
2013-03-22 11:52:00,47.5,30.3,30.41,North,0,2.7,6.5,51,0.00,,OVC,0.04,VWS V14.01,2013-03-22 18:52:00,
2013-03-22 11:57:00,46.0,28.5,30.41,WSW,248,3.8,9.8,50,0.00,,OVC,0.04,VWS V14.01,2013-03-22 18:57:00,
2013-03-22 12:02:00,46.6,28.0,30.41,SSE,158,3.1,4.3,48,0.00,,OVC,0.04,VWS V14.01,2013-03-22 19:02:00,
2013-03-22 12:07:00,47.5,30.3,30.41,NNE,22,2.0,7.2,51,0.00,,OVC,0.04,VWS V14.01,2013-03-22 19:07:00,
2013-03-22 12:12:00,47.5,29.8,30.41,NE,45,2.7,7.2,50,0.00,,OVC,0.04,VWS V14.01,2013-03-22 19:12:00,
2013-03-22 12:17:00,47.3,29.6,30.41,SW,225,3.8,7.2,50,0.00,,OVC,0.04,VWS V14.01,2013-03-22 19:17:00,
2013-03-22 12:22:00,47.8,29.1,30.41,SW,225,5.4,7.2,48,0.00,,OVC,0.04,VWS V14.01,2013-03-22 19:22:00,
2013-03-22 12:27:00,48.9,30.1,30.41,NNW,338,3.4,8.5,48,0.00,,OVC,0.04,VWS V14.01,2013-03-22 19:27:00,
2013-03-22 12:32:00,49.1,27.6,30.41,SE,135,2.5,8.5,43,0.00,,OVC,0.04,VWS V14.01,2013-03-22 19:32:00,
2013-03-22 12:37:00,48.4,28.6,30.41,NNW,338,3.1,8.5,46,0.00,,OVC,0.04,VWS V14.01,2013-03-22 19:37:00,
2013-03-22 12:42:00,49.3,27.8,30.41,West,270,10.7,10.7,43,0.00,,OVC,0.04,VWS V14.01,2013-03-22 19:42:00,
2013-03-22 12:47:00,49.8,27.7,30.41,SSW,202,6.3,10.7,42,0.00,,OVC,0.04,VWS V14.01,2013-03-22 19:47:00,
2013-03-22 12:52:00,51.3,29.0,30.41,NW,315,3.8,10.7,42,0.00,,OVC,0.04,VWS V14.01,2013-03-22 19:52:00,
2013-03-22 12:58:00,49.6,25.7,30.41,WNW,292,6.5,10.7,39,0.00,,OVC,0.04,VWS V14.01,2013-03-22 19:58:00,
2013-03-22 13:03:00,49.3,25.4,30.41,NNW,338,7.8,8.7,39,0.00,,OVC,0.04,VWS V14.01,2013-03-22 20:03:00,
2013-03-22 13:08:00,48.6,24.7,30.41,NNE,22,3.8,11.9,39,0.00,,OVC,0.04,VWS V14.01,2013-03-22 20:08:00,
2013-03-22 13:13:00,48.7,25.5,30.41,North,0,3.4,11.9,40,0.00,,OVC,0.04,VWS V14.01,2013-03-22 20:13:00,
2013-03-22 13:18:00,48.2,24.4,30.41,SW,225,2.9,11.9,39,0.00,,OVC,0.04,VWS V14.01,2013-03-22 20:18:00,
2013-03-22 13:23:00,48.0,24.9,30.41,SSW,202,3.6,11.9,40,0.00,,OVC,0.04,VWS V14.01,2013-03-22 20:23:00,
2013-03-22 13:28:00,48.0,24.9,30.41,SW,225,4.0,11.9,40,0.00,,OVC,0.04,VWS V14.01,2013-03-22 20:28:00,
2013-03-22 13:33:00,46.2,26.1,30.41,WSW,248,3.4,11.9,45,0.00,,OVC,0.04,VWS V14.01,2013-03-22 20:33:00,
2013-03-22 13:38:00,45.9,25.7,30.41,SSW,202,4.9,11.9,45,0.00,,OVC,0.04,VWS V14.01,2013-03-22 20:38:00,
2013-03-22 13:43:00,45.7,27.1,30.41,South,180,3.8,11.9,48,0.00,,OVC,0.04,VWS V14.01,2013-03-22 20:43:00,
2013-03-22 13:48:00,44.8,26.8,30.41,SW,225,4.9,11.9,49,0.00,,OVC,0.04,VWS V14.01,2013-03-22 20:48:00,
2013-03-22 13:53:00,45.7,28.6,30.41,NE,45,3.4,11.9,51,0.00,,OVC,0.04,VWS V14.01,2013-03-22 20:53:00,
2013-03-22 13:58:00,45.5,28.0,30.41,South,180,7.4,11.9,50,0.00,,OVC,0.04,VWS V14.01,2013-03-22 20:58:00,
2013-03-22 14:03:00,45.5,28.0,30.41,WSW,248,2.7,6.3,50,0.00,,OVC,0.04,VWS V14.01,2013-03-22 21:03:00,
2013-03-22 14:08:00,45.5,28.0,30.41,WNW,292,3.6,7.8,50,0.00,,OVC,0.04,VWS V14.01,2013-03-22 21:08:00,
2013-03-22 14:13:00,50.2,29.7,30.41,NNW,338,3.1,7.8,45,0.00,,OVC,0.04,VWS V14.01,2013-03-22 21:13:00,
2013-03-22 14:18:00,50.4,27.0,30.39,WSW,248,8.7,9.6,40,0.00,,OVC,0.04,VWS V14.01,2013-03-22 21:18:00,
2013-03-22 14:23:00,51.3,27.8,30.39,SSW,202,4.0,9.6,40,0.00,,OVC,0.04,VWS V14.01,2013-03-22 21:23:00,
2013-03-22 14:28:00,50.7,27.3,30.39,SW,225,1.1,12.3,40,0.00,,OVC,0.04,VWS V14.01,2013-03-22 21:28:00,
2013-03-22 14:33:00,50.5,26.5,30.41,SW,225,6.3,12.3,39,0.00,,OVC,0.04,VWS V14.01,2013-03-22 21:33:00,
2013-03-22 14:38:00,48.0,24.9,30.41,NW,315,5.4,12.5,40,0.00,,OVC,0.04,VWS V14.01,2013-03-22 21:38:00,
2013-03-22 14:43:00,47.3,24.8,30.41,NNW,338,6.0,12.5,41,0.00,,OVC,0.04,VWS V14.01,2013-03-22 21:43:00,
2013-03-22 14:48:00,45.3,26.3,30.41,NNW,338,3.8,14.1,47,0.00,,OVC,0.04,VWS V14.01,2013-03-22 21:48:00,
2013-03-22 14:54:00,44.8,25.8,30.41,SW,225,4.7,14.1,47,0.00,,OVC,0.04,VWS V14.01,2013-03-22 21:54:00,
2013-03-22 14:59:00,44.6,26.1,30.41,WSW,248,2.5,14.1,48,0.00,,OVC,0.04,VWS V14.01,2013-03-22 21:59:00,
2013-03-22 15:04:00,44.8,26.8,30.41,WNW,292,4.0,4.0,49,0.00,,OVC,0.04,VWS V14.01,2013-03-22 22:04:00,
2013-03-22 15:09:00,47.1,29.5,30.41,SSW,202,5.4,5.4,50,0.00,,OVC,0.04,VWS V14.01,2013-03-22 22:09:00,
2013-03-22 15:14:00,47.5,29.3,30.41,West,270,4.7,8.5,49,0.00,,OVC,0.04,VWS V14.01,2013-03-22 22:14:00,
2013-03-22 15:19:00,46.2,27.6,30.41,NNW,338,7.6,14.3,48,0.00,,OVC,0.04,VWS V14.01,2013-03-22 22:19:00,
2013-03-22 15:24:00,43.7,27.7,30.41,NNW,338,6.3,14.3,53,0.00,,OVC,0.04,VWS V14.01,2013-03-22 22:24:00,
2013-03-22 15:29:00,41.2,27.1,30.41,North,0,5.4,14.3,57,0.00,,OVC,0.04,VWS V14.01,2013-03-22 22:29:00,
2013-03-22 15:34:00,39.7,28.6,30.44,NNE,22,3.6,14.3,64,0.00,,OVC,0.04,VWS V14.01,2013-03-22 22:34:00,
2013-03-22 15:39:00,39.7,29.0,30.44,SE,135,4.7,14.3,65,0.00,,OVC,0.04,VWS V14.01,2013-03-22 22:39:00,
2013-03-22 15:44:00,40.8,31.8,30.44,East,90,2.0,14.3,70,0.00,,OVC,0.04,VWS V14.01,2013-03-22 22:44:00,
2013-03-22 15:49:00,41.4,32.7,30.41,SE,135,2.5,14.3,71,0.04,,OVC,0.08,VWS V14.01,2013-03-22 22:49:00,
2013-03-22 15:54:00,43.5,34.8,30.41,SSW,202,1.6,14.3,71,0.04,,OVC,0.08,VWS V14.01,2013-03-22 22:54:00,
2013-03-22 15:59:00,44.6,34.7,30.41,NE,45,2.9,14.3,68,0.04,,OVC,0.08,VWS V14.01,2013-03-22 22:59:00,
2013-03-22 16:04:00,45.5,32.8,30.41,South,180,3.4,7.6,61,0.04,,OVC,0.08,VWS V14.01,2013-03-22 23:04:00,
2013-03-22 16:09:00,46.2,32.7,30.41,South,180,4.5,7.6,59,0.04,,OVC,0.08,VWS V14.01,2013-03-22 23:09:00,
2013-03-22 16:14:00,46.6,32.2,30.41,WNW,292,2.7,7.6,57,0.04,,OVC,0.08,VWS V14.01,2013-03-22 23:14:00,
2013-03-22 16:19:00,46.6,31.7,30.41,SSW,202,4.0,7.6,56,0.04,,OVC,0.08,VWS V14.01,2013-03-22 23:19:00,
2013-03-22 16:24:00,46.6,30.8,30.41,NW,315,2.2,7.6,54,0.04,,OVC,0.08,VWS V14.01,2013-03-22 23:24:00,
2013-03-22 16:29:00,46.9,32.1,30.41,South,180,4.9,7.6,56,0.04,,OVC,0.08,VWS V14.01,2013-03-22 23:29:00,
2013-03-22 16:34:00,46.8,31.5,30.41,South,180,3.8,7.6,55,0.04,,OVC,0.08,VWS V14.01,2013-03-22 23:34:00,
2013-03-22 16:39:00,45.3,29.2,30.41,NNW,338,4.3,8.1,53,0.04,,OVC,0.08,VWS V14.01,2013-03-22 23:39:00,
2013-03-22 16:44:00,43.0,29.2,30.41,NNE,22,4.0,8.1,58,0.04,,OVC,0.08,VWS V14.01,2013-03-22 23:44:00,
2013-03-22 16:49:00,40.5,28.5,30.44,SSW,202,2.7,8.5,62,0.04,,OVC,0.08,VWS V14.01,2013-03-22 23:49:00,
2013-03-22 16:54:00,38.5,27.4,30.44,North,0,4.0,13.0,64,0.04,,OVC,0.08,VWS V14.01,2013-03-22 23:54:00,
2013-03-22 16:59:00,38.5,28.5,30.44,WNW,292,1.6,13.0,67,0.04,,OVC,0.08,VWS V14.01,2013-03-22 23:59:00,
2013-03-22 17:04:00,40.3,31.6,30.44,South,180,2.5,3.8,71,0.00,,OVC,0.08,VWS V14.01,2013-03-23 00:04:00,
2013-03-22 17:09:00,41.7,33.7,30.44,SE,135,1.6,6.0,73,0.00,,OVC,0.08,VWS V14.01,2013-03-23 00:09:00,
2013-03-22 17:14:00,43.3,34.6,30.44,North,0,0.0,6.0,71,0.00,,OVC,0.08,VWS V14.01,2013-03-23 00:14:00,
2013-03-22 17:19:00,44.1,33.8,30.41,SSW,202,2.7,6.0,67,0.00,,OVC,0.08,VWS V14.01,2013-03-23 00:19:00,
2013-03-22 17:24:00,44.8,33.0,30.41,NNW,338,0.0,6.0,63,0.00,,OVC,0.08,VWS V14.01,2013-03-23 00:24:00,
2013-03-22 17:29:00,45.1,32.5,30.41,NNE,22,0.9,6.0,61,0.00,,OVC,0.08,VWS V14.01,2013-03-23 00:29:00,
2013-03-22 17:34:00,44.6,31.6,30.41,SSW,202,1.3,6.0,60,0.00,,OVC,0.08,VWS V14.01,2013-03-23 00:34:00,
2013-03-22 17:39:00,43.3,30.4,30.41,WSW,248,1.3,6.0,60,0.00,,OVC,0.08,VWS V14.01,2013-03-23 00:39:00,
2013-03-22 17:44:00,41.9,29.5,30.41,SE,135,2.7,6.0,61,0.00,,OVC,0.08,VWS V14.01,2013-03-23 00:44:00,
2013-03-22 17:49:00,40.8,28.8,30.41,SSE,158,2.7,6.0,62,0.00,,OVC,0.08,VWS V14.01,2013-03-23 00:49:00,
2013-03-22 17:54:00,40.1,29.3,30.41,SE,135,1.3,6.0,65,0.00,,OVC,0.08,VWS V14.01,2013-03-23 00:54:00,
2013-03-22 17:59:00,39.6,29.9,30.41,South,180,1.1,6.0,68,0.00,,OVC,0.08,VWS V14.01,2013-03-23 00:59:00,
2013-03-22 18:04:00,38.8,30.6,30.41,SW,225,0.0,5.4,72,0.00,,OVC,0.08,VWS V14.01,2013-03-23 01:04:00,
2013-03-22 18:10:00,38.7,31.1,30.41,SW,225,3.1,5.4,74,0.00,,OVC,0.08,VWS V14.01,2013-03-23 01:10:00,
2013-03-22 18:15:00,38.5,30.6,30.41,SSE,158,2.2,7.4,73,0.00,,OVC,0.08,VWS V14.01,2013-03-23 01:15:00,
2013-03-22 18:20:00,38.3,30.4,30.44,SSW,202,1.6,7.4,73,0.00,,OVC,0.08,VWS V14.01,2013-03-23 01:20:00,
2013-03-22 18:25:00,38.5,30.6,30.44,SW,225,0.0,7.4,73,0.00,,OVC,0.08,VWS V14.01,2013-03-23 01:25:00,
2013-03-22 18:30:00,38.5,30.2,30.44,WNW,292,0.0,7.4,72,0.00,,OVC,0.08,VWS V14.01,2013-03-23 01:30:00,
2013-03-22 18:35:00,38.1,29.9,30.44,SW,225,1.6,7.4,72,0.00,,OVC,0.08,VWS V14.01,2013-03-23 01:35:00,
2013-03-22 18:40:00,37.8,29.6,30.44,SW,225,2.0,7.4,72,0.00,,OVC,0.08,VWS V14.01,2013-03-23 01:40:00,
2013-03-22 18:45:00,37.4,29.5,30.44,SW,225,1.3,7.4,73,0.00,,OVC,0.08,VWS V14.01,2013-03-23 01:45:00,
2013-03-22 18:50:00,36.9,29.7,30.41,SW,225,1.1,7.4,75,0.00,,OVC,0.08,VWS V14.01,2013-03-23 01:50:00,
2013-03-22 18:55:00,36.3,29.5,30.41,SW,225,2.0,7.4,76,0.00,,OVC,0.08,VWS V14.01,2013-03-23 01:55:00,
2013-03-22 19:00:00,36.0,29.5,30.41,SW,225,2.5,2.5,77,0.00,,OVC,0.08,VWS V14.01,2013-03-23 02:00:00,
2013-03-22 19:05:00,35.6,29.7,30.41,SW,225,2.5,2.9,79,0.00,,OVC,0.08,VWS V14.01,2013-03-23 02:05:00,
2013-03-22 19:10:00,35.1,29.5,30.41,SW,225,2.7,2.9,80,0.00,,OVC,0.08,VWS V14.01,2013-03-23 02:10:00,
2013-03-22 19:15:00,34.7,29.5,30.41,SW,225,2.2,2.9,81,0.00,,OVC,0.08,VWS V14.01,2013-03-23 02:15:00,
2013-03-22 19:20:00,34.0,28.8,30.41,SW,225,2.2,2.9,81,0.00,,OVC,0.08,VWS V14.01,2013-03-23 02:20:00,
2013-03-22 19:25:00,33.8,28.6,30.41,WSW,248,1.6,2.9,81,0.00,,OVC,0.08,VWS V14.01,2013-03-23 02:25:00,
2013-03-22 19:30:00,33.6,28.7,30.41,SW,225,2.5,2.9,82,0.00,,OVC,0.08,VWS V14.01,2013-03-23 02:30:00,
2013-03-22 19:35:00,33.3,28.7,30.44,WSW,248,2.2,2.9,83,0.00,,OVC,0.08,VWS V14.01,2013-03-23 02:35:00,
2013-03-22 19:40:00,33.3,28.7,30.44,WSW,248,2.2,2.9,83,0.00,,OVC,0.08,VWS V14.01,2013-03-23 02:40:00,
2013-03-22 19:45:00,33.1,28.8,30.44,SW,225,2.7,2.9,84,0.00,,OVC,0.08,VWS V14.01,2013-03-23 02:45:00,
2013-03-22 19:50:00,32.7,29.0,30.41,SSW,202,2.7,3.4,86,0.00,,OVC,0.08,VWS V14.01,2013-03-23 02:50:00,
2013-03-22 19:55:00,32.5,28.8,30.41,SW,225,3.6,3.6,86,0.00,,OVC,0.08,VWS V14.01,2013-03-23 02:55:00,
2013-03-22 20:01:00,32.7,29.3,30.41,WSW,248,2.9,2.9,87,0.00,,OVC,0.08,VWS V14.01,2013-03-23 03:01:00,
2013-03-22 20:06:00,32.5,29.1,30.41,WSW,248,2.2,2.9,87,0.00,,OVC,0.08,VWS V14.01,2013-03-23 03:06:00,
2013-03-22 20:11:00,32.5,29.1,30.41,WNW,292,2.0,2.9,87,0.00,,OVC,0.08,VWS V14.01,2013-03-23 03:11:00,
2013-03-22 20:16:00,32.2,28.8,30.41,WNW,292,2.2,2.9,87,0.00,,OVC,0.08,VWS V14.01,2013-03-23 03:16:00,
2013-03-22 20:21:00,32.0,28.6,30.41,WNW,292,2.7,2.9,87,0.00,,OVC,0.08,VWS V14.01,2013-03-23 03:21:00,
2013-03-22 20:26:00,32.2,29.0,30.41,WNW,292,2.7,2.9,88,0.00,,OVC,0.08,VWS V14.01,2013-03-23 03:26:00,
2013-03-22 20:31:00,32.2,29.0,30.41,WNW,292,1.6,2.9,88,0.00,,OVC,0.08,VWS V14.01,2013-03-23 03:31:00,
2013-03-22 20:36:00,32.0,28.9,30.44,WNW,292,1.6,2.9,88,0.00,,OVC,0.08,VWS V14.01,2013-03-23 03:36:00,
2013-03-22 20:41:00,31.5,28.3,30.44,WNW,292,1.6,2.9,88,0.00,,OVC,0.08,VWS V14.01,2013-03-23 03:41:00,
2013-03-22 20:46:00,31.1,28.0,30.44,WNW,292,1.3,2.9,88,0.00,,OVC,0.08,VWS V14.01,2013-03-23 03:46:00,
2013-03-22 20:51:00,31.6,28.8,30.44,WNW,292,1.6,2.9,89,0.00,,OVC,0.08,VWS V14.01,2013-03-23 03:51:00,
2013-03-22 20:56:00,31.8,29.2,30.44,West,270,2.0,2.9,90,0.00,,OVC,0.08,VWS V14.01,2013-03-23 03:56:00,
2013-03-22 21:00:00,31.3,28.4,30.44,West,270,1.1,2.9,89,0.00,,OVC,0.08,VWS V14.01,2013-03-23 04:00:00,
2013-03-22 21:05:00,31.1,28.2,30.44,SSW,202,2.5,2.9,89,0.00,,OVC,0.08,VWS V14.01,2013-03-23 04:05:00,
2013-03-22 21:10:00,31.1,28.5,30.44,SW,225,1.3,2.9,90,0.00,,OVC,0.08,VWS V14.01,2013-03-23 04:10:00,
2013-03-22 21:15:00,31.1,28.5,30.44,SSW,202,0.0,2.9,90,0.00,,OVC,0.08,VWS V14.01,2013-03-23 04:15:00,
2013-03-22 21:20:00,31.1,28.5,30.41,SW,225,2.5,2.9,90,0.00,,OVC,0.08,VWS V14.01,2013-03-23 04:20:00,
2013-03-22 21:25:00,31.1,28.8,30.41,SW,225,2.9,3.1,91,0.00,,OVC,0.08,VWS V14.01,2013-03-23 04:25:00,
2013-03-22 21:30:00,30.9,28.6,30.41,WSW,248,2.0,3.1,91,0.00,,OVC,0.08,VWS V14.01,2013-03-23 04:30:00,
2013-03-22 21:36:00,30.7,28.2,30.44,WSW,248,0.0,3.1,90,0.00,,OVC,0.08,VWS V14.01,2013-03-23 04:36:00,
2013-03-22 21:41:00,30.2,27.6,30.44,WSW,248,0.0,3.1,90,0.00,,OVC,0.04,VWS V14.01,2013-03-23 04:41:00,
2013-03-22 21:46:00,29.8,27.0,30.44,WSW,248,0.0,3.1,89,0.00,,OVC,0.08,VWS V14.01,2013-03-23 04:46:00,
2013-03-22 21:51:00,29.5,26.6,30.44,WSW,248,0.0,3.1,89,0.00,,OVC,0.08,VWS V14.01,2013-03-23 04:51:00,
2013-03-22 21:56:00,29.7,26.8,30.44,WSW,248,0.9,3.1,89,0.00,,OVC,0.08,VWS V14.01,2013-03-23 04:56:00,
2013-03-22 22:01:00,30.0,27.7,30.44,SW,225,2.9,3.4,91,0.00,,OVC,0.08,VWS V14.01,2013-03-23 05:01:00,
2013-03-22 22:06:00,30.2,28.2,30.44,SW,225,1.6,3.4,92,0.00,,OVC,0.08,VWS V14.01,2013-03-23 05:06:00,
2013-03-22 22:11:00,30.0,28.0,30.44,SW,225,1.1,3.4,92,0.00,,OVC,0.08,VWS V14.01,2013-03-23 05:11:00,
2013-03-22 22:16:00,29.7,27.4,30.44,SW,225,2.5,3.4,91,0.00,,OVC,0.08,VWS V14.01,2013-03-23 05:16:00,
2013-03-22 22:21:00,29.8,27.5,30.44,WSW,248,2.5,3.4,91,0.00,,OVC,0.08,VWS V14.01,2013-03-23 05:21:00,
2013-03-22 22:26:00,30.2,28.4,30.44,West,270,1.3,3.4,93,0.00,,OVC,0.08,VWS V14.01,2013-03-23 05:26:00,
2013-03-22 22:31:00,29.7,27.6,30.44,WNW,292,0.0,3.4,92,0.00,,OVC,0.08,VWS V14.01,2013-03-23 05:31:00,
2013-03-22 22:36:00,29.5,27.2,30.44,WNW,292,1.3,3.4,91,0.00,,OVC,0.08,VWS V14.01,2013-03-23 05:36:00,
2013-03-22 22:41:00,29.5,27.2,30.44,WNW,292,0.0,3.4,91,0.00,,OVC,0.08,VWS V14.01,2013-03-23 05:41:00,